FWG117 EDHI-EDXW
Flight info
| Callsign | FWG117 |
|---|---|
| Flight time | 0h 24m |
| Altitude | 19000 |
| Route | ELSOB2W ELSOB Y348 OMWEG/N0387F180 DCT BADOS DCT OLDIP |
| Aircraft | A320/M-SDE3FGHIRWY/LB1 |
Departure
| Time | 2026-04-22 14:25 |
|---|---|
| Airport | Hamburg-Finkenwerder Airport (EDHI) |
Arrival
| Time | 2026-04-22 14:49 |
|---|---|
| Airport | Westerland Sylt Airport (EDXW) |
| Time | Latitude | Longitude | Altitude | Speed | Heading |
|---|---|---|---|---|---|
| 2026-04-22 14:07 | 53.53866 | 9.83713 | 24 ft | 0 kts | 142° |
| 2026-04-22 14:09 | 53.53866 | 9.83712 | 24 ft | 0 kts | 142° |
| 2026-04-22 14:18 | 53.53872 | 9.83705 | 27 ft | 2 kts | 142° |
| 2026-04-22 14:19 | 53.53887 | 9.83694 | 29 ft | 2 kts | 190° |
| 2026-04-22 14:19 | 53.53902 | 9.83704 | 28 ft | 1 kts | 235° |
| 2026-04-22 14:19 | 53.53902 | 9.83703 | 29 ft | 0 kts | 235° |
| 2026-04-22 14:20 | 53.53894 | 9.83687 | 28 ft | 7 kts | 229° |
| 2026-04-22 14:20 | 53.53833 | 9.83633 | 26 ft | 12 kts | 179° |
| 2026-04-22 14:21 | 53.53673 | 9.83775 | 22 ft | 13 kts | 88° |
| 2026-04-22 14:21 | 53.53717 | 9.83929 | 22 ft | 16 kts | 56° |
| 2026-04-22 14:22 | 53.53920 | 9.84374 | 24 ft | 34 kts | 52° |
| 2026-04-22 14:22 | 53.54091 | 9.84697 | 22 ft | 39 kts | 49° |
| 2026-04-22 14:22 | 53.54300 | 9.85035 | 24 ft | 3 kts | 112° |
| 2026-04-22 14:23 | 53.54262 | 9.85039 | 24 ft | 9 kts | 192° |
| 2026-04-22 14:23 | 53.54224 | 9.85006 | 26 ft | 0 kts | 227° |
| 2026-04-22 14:24 | 53.54218 | 9.84996 | 25 ft | 6 kts | 227° |
| 2026-04-22 14:24 | 53.53984 | 9.84507 | 24 ft | 107 kts | 232° |
| 2026-04-22 14:24 | 53.53346 | 9.83165 | 148 ft | 176 kts | 232° |
| 2026-04-22 14:24 | 53.52805 | 9.82012 | 607 ft | 195 kts | 234° |
| 2026-04-22 14:25 | 53.51965 | 9.80223 | 1924 ft | 200 kts | 235° |
| 2026-04-22 14:25 | 53.51053 | 9.78282 | 3075 ft | 223 kts | 234° |
| 2026-04-22 14:25 | 53.50061 | 9.76179 | 4382 ft | 235 kts | 234° |
| 2026-04-22 14:25 | 53.49022 | 9.73973 | 5638 ft | 246 kts | 236° |
| 2026-04-22 14:26 | 53.48279 | 9.71369 | 6854 ft | 252 kts | 261° |
| 2026-04-22 14:26 | 53.48231 | 9.68441 | 8090 ft | 253 kts | 283° |
| 2026-04-22 14:26 | 53.48841 | 9.65687 | 9357 ft | 254 kts | 304° |
| 2026-04-22 14:26 | 53.50022 | 9.63496 | 10607 ft | 255 kts | 326° |
| 2026-04-22 14:27 | 53.51611 | 9.62200 | 11739 ft | 257 kts | 347° |
| 2026-04-22 14:27 | 53.53386 | 9.61623 | 12553 ft | 268 kts | 351° |
| 2026-04-22 14:27 | 53.55305 | 9.61041 | 12973 ft | 292 kts | 351° |
| 2026-04-22 14:27 | 53.57388 | 9.60408 | 13348 ft | 316 kts | 351° |
| 2026-04-22 14:28 | 53.59636 | 9.59722 | 13662 ft | 339 kts | 351° |
| 2026-04-22 14:28 | 53.61978 | 9.58998 | 14286 ft | 350 kts | 351° |
| 2026-04-22 14:28 | 53.64392 | 9.58241 | 14995 ft | 355 kts | 351° |
| 2026-04-22 14:28 | 53.66831 | 9.57510 | 15281 ft | 356 kts | 352° |
| 2026-04-22 14:29 | 53.69290 | 9.56886 | 15367 ft | 357 kts | 353° |
| 2026-04-22 14:29 | 53.71751 | 9.56333 | 15377 ft | 357 kts | 354° |
| 2026-04-22 14:29 | 53.74210 | 9.55807 | 15384 ft | 357 kts | 354° |
| 2026-04-22 14:29 | 53.76672 | 9.55277 | 15375 ft | 357 kts | 354° |
| 2026-04-22 14:30 | 53.79134 | 9.54729 | 15378 ft | 357 kts | 354° |
| 2026-04-22 14:30 | 53.81625 | 9.54158 | 15951 ft | 363 kts | 353° |
| 2026-04-22 14:30 | 53.84131 | 9.53574 | 16832 ft | 365 kts | 354° |
| 2026-04-22 14:30 | 53.86660 | 9.52983 | 17654 ft | 368 kts | 354° |
| 2026-04-22 14:31 | 53.89213 | 9.52382 | 18444 ft | 372 kts | 354° |
| 2026-04-22 14:31 | 53.91789 | 9.51774 | 19085 ft | 376 kts | 354° |
| 2026-04-22 14:31 | 53.94394 | 9.51159 | 19302 ft | 377 kts | 354° |
| 2026-04-22 14:31 | 53.96995 | 9.50547 | 19364 ft | 392 kts | 354° |
| 2026-04-22 14:32 | 53.99744 | 9.49543 | 19368 ft | 415 kts | 345° |
| 2026-04-22 14:32 | 54.02470 | 9.47728 | 19364 ft | 426 kts | 336° |
| 2026-04-22 14:32 | 54.05064 | 9.45241 | 19362 ft | 430 kts | 332° |
| 2026-04-22 14:32 | 54.07648 | 9.42673 | 19361 ft | 430 kts | 332° |
| 2026-04-22 14:33 | 54.10239 | 9.40105 | 19357 ft | 430 kts | 332° |
| 2026-04-22 14:33 | 54.12811 | 9.37563 | 19256 ft | 421 kts | 333° |
| 2026-04-22 14:33 | 54.15304 | 9.35101 | 18550 ft | 411 kts | 333° |
| 2026-04-22 14:33 | 54.17764 | 9.32673 | 17718 ft | 405 kts | 333° |
| 2026-04-22 14:34 | 54.20184 | 9.30282 | 17018 ft | 398 kts | 332° |
| 2026-04-22 14:34 | 54.22565 | 9.27929 | 16334 ft | 393 kts | 332° |
| 2026-04-22 14:34 | 54.24892 | 9.25622 | 15671 ft | 390 kts | 332° |
| 2026-04-22 14:34 | 54.27229 | 9.23300 | 14998 ft | 386 kts | 332° |
| 2026-04-22 14:35 | 54.29539 | 9.20999 | 14327 ft | 383 kts | 332° |
| 2026-04-22 14:35 | 54.31829 | 9.18709 | 13578 ft | 379 kts | 332° |
| 2026-04-22 14:35 | 54.34090 | 9.16444 | 12871 ft | 374 kts | 332° |
| 2026-04-22 14:35 | 54.36301 | 9.14163 | 12135 ft | 370 kts | 327° |
| 2026-04-22 14:36 | 54.38272 | 9.11340 | 11410 ft | 368 kts | 316° |
| 2026-04-22 14:36 | 54.40012 | 9.08278 | 11239 ft | 349 kts | 316° |
| 2026-04-22 14:36 | 54.41672 | 9.05388 | 11114 ft | 331 kts | 317° |
| 2026-04-22 14:36 | 54.43257 | 9.02643 | 10990 ft | 316 kts | 317° |
| 2026-04-22 14:37 | 54.44770 | 9.00025 | 10868 ft | 302 kts | 317° |
| 2026-04-22 14:37 | 54.46221 | 8.97512 | 10747 ft | 291 kts | 317° |
| 2026-04-22 14:37 | 54.47624 | 8.95081 | 10529 ft | 283 kts | 317° |
| 2026-04-22 14:37 | 54.48996 | 8.92703 | 10314 ft | 278 kts | 317° |
| 2026-04-22 14:38 | 54.50352 | 8.90345 | 10181 ft | 277 kts | 317° |
| 2026-04-22 14:38 | 54.51707 | 8.87985 | 10055 ft | 277 kts | 317° |
| 2026-04-22 14:38 | 54.53058 | 8.85630 | 9863 ft | 277 kts | 317° |
| 2026-04-22 14:38 | 54.54427 | 8.83244 | 9384 ft | 280 kts | 317° |
| 2026-04-22 14:39 | 54.55771 | 8.80893 | 8887 ft | 273 kts | 317° |
| 2026-04-22 14:39 | 54.57102 | 8.78556 | 8172 ft | 272 kts | 317° |
| 2026-04-22 14:39 | 54.58418 | 8.76235 | 7304 ft | 269 kts | 316° |
| 2026-04-22 14:40 | 54.61005 | 8.71554 | 5732 ft | 264 kts | 317° |
| 2026-04-22 14:40 | 54.62381 | 8.69550 | 5238 ft | 254 kts | 326° |
| 2026-04-22 14:40 | 54.63795 | 8.67841 | 5161 ft | 242 kts | 327° |
| 2026-04-22 14:40 | 54.65141 | 8.66223 | 5107 ft | 230 kts | 327° |
| 2026-04-22 14:41 | 54.66409 | 8.64681 | 5044 ft | 217 kts | 327° |
| 2026-04-22 14:41 | 54.67605 | 8.63220 | 4981 ft | 205 kts | 327° |
| 2026-04-22 14:41 | 54.68729 | 8.61847 | 4928 ft | 189 kts | 327° |
| 2026-04-22 14:41 | 54.69761 | 8.60585 | 4822 ft | 171 kts | 327° |
| 2026-04-22 14:42 | 54.70669 | 8.59473 | 4768 ft | 147 kts | 327° |
| 2026-04-22 14:42 | 54.71441 | 8.58529 | 4631 ft | 130 kts | 327° |
| 2026-04-22 14:42 | 54.72159 | 8.57651 | 4470 ft | 125 kts | 327° |
| 2026-04-22 14:42 | 54.72862 | 8.56792 | 4320 ft | 123 kts | 327° |
| 2026-04-22 14:43 | 54.73557 | 8.55941 | 4159 ft | 122 kts | 327° |
| 2026-04-22 14:43 | 54.74251 | 8.55090 | 4001 ft | 122 kts | 327° |
| 2026-04-22 14:43 | 54.74944 | 8.54241 | 3838 ft | 122 kts | 327° |
| 2026-04-22 14:43 | 54.75637 | 8.53390 | 3675 ft | 122 kts | 327° |
| 2026-04-22 14:44 | 54.76331 | 8.52539 | 3513 ft | 122 kts | 326° |
| 2026-04-22 14:44 | 54.77024 | 8.51688 | 3334 ft | 122 kts | 326° |
| 2026-04-22 14:44 | 54.77713 | 8.50842 | 3174 ft | 121 kts | 325° |
| 2026-04-22 14:44 | 54.78400 | 8.49998 | 3012 ft | 121 kts | 325° |
| 2026-04-22 14:45 | 54.79086 | 8.49154 | 2848 ft | 121 kts | 325° |
| 2026-04-22 14:45 | 54.79770 | 8.48313 | 2680 ft | 121 kts | 324° |
| 2026-04-22 14:45 | 54.80454 | 8.47472 | 2515 ft | 120 kts | 324° |
| 2026-04-22 14:45 | 54.81128 | 8.46642 | 2356 ft | 120 kts | 324° |
| 2026-04-22 14:46 | 54.81811 | 8.45800 | 2189 ft | 120 kts | 323° |
| 2026-04-22 14:46 | 54.82495 | 8.44958 | 2025 ft | 120 kts | 323° |
| 2026-04-22 14:46 | 54.83172 | 8.44123 | 1858 ft | 120 kts | 323° |
| 2026-04-22 14:46 | 54.83852 | 8.43286 | 1694 ft | 119 kts | 323° |
| 2026-04-22 14:47 | 54.84517 | 8.42464 | 1529 ft | 116 kts | 323° |
| 2026-04-22 14:47 | 54.85172 | 8.41657 | 1373 ft | 115 kts | 323° |
| 2026-04-22 14:47 | 54.85824 | 8.40851 | 1215 ft | 115 kts | 323° |
| 2026-04-22 14:47 | 54.86470 | 8.40054 | 1058 ft | 114 kts | 323° |
| 2026-04-22 14:48 | 54.87110 | 8.39264 | 883 ft | 112 kts | 323° |
| 2026-04-22 14:48 | 54.87743 | 8.38480 | 746 ft | 111 kts | 323° |
| 2026-04-22 14:48 | 54.88375 | 8.37699 | 580 ft | 111 kts | 324° |
| 2026-04-22 14:48 | 54.88998 | 8.36929 | 423 ft | 111 kts | 324° |
| 2026-04-22 14:49 | 54.89625 | 8.36152 | 273 ft | 111 kts | 324° |
| 2026-04-22 14:49 | 54.90251 | 8.35377 | 123 ft | 111 kts | 324° |
| 2026-04-22 14:49 | 54.90861 | 8.34620 | 41 ft | 95 kts | 324° |
| 2026-04-22 14:49 | 54.91220 | 8.34179 | 43 ft | 44 kts | 324° |
| 2026-04-22 14:50 | 54.91481 | 8.33849 | 41 ft | 27 kts | 326° |
| 2026-04-22 14:50 | 54.91609 | 8.33673 | 43 ft | 15 kts | 311° |
| 2026-04-22 14:50 | 54.91676 | 8.33509 | 42 ft | 18 kts | 301° |
| 2026-04-22 14:50 | 54.91739 | 8.33299 | 38 ft | 18 kts | 288° |
| 2026-04-22 14:51 | 54.91717 | 8.33179 | 41 ft | 6 kts | 200° |
| 2026-04-22 14:51 | 54.91635 | 8.33179 | 41 ft | 17 kts | 180° |
| 2026-04-22 14:51 | 54.91514 | 8.33180 | 41 ft | 18 kts | 179° |
| 2026-04-22 14:51 | 54.91409 | 8.33242 | 40 ft | 15 kts | 167° |
| 2026-04-22 14:52 | 54.91317 | 8.33202 | 40 ft | 13 kts | 239° |
| 2026-04-22 14:52 | 54.91312 | 8.33113 | 40 ft | 0 kts | 271° |